sensor_id;sensor_type;location;lat;lon;timestamp;temperature;humidity
11666;DHT22;5889;51.350;6.708;2023-03-01T00:00:17;0.40;99.90
11666;DHT22;5889;51.350;6.708;2023-03-01T00:02:44;0.40;99.90
11666;DHT22;5889;51.350;6.708;2023-03-01T00:05:11;0.40;99.90
11666;DHT22;5889;51.350;6.708;2023-03-01T00:07:38;0.40;99.90
11666;DHT22;5889;51.350;6.708;2023-03-01T00:10:08;0.40;99.90
11666;DHT22;5889;51.350;6.708;2023-03-01T00:12:35;0.40;99.90
11666;DHT22;5889;51.350;6.708;2023-03-01T00:15:03;0.40;99.90
11666;DHT22;5889;51.350;6.708;2023-03-01T00:17:30;0.40;99.90
11666;DHT22;5889;51.350;6.708;2023-03-01T00:19:58;0.30;99.90
11666;DHT22;5889;51.350;6.708;2023-03-01T00:22:26;0.20;99.90
11666;DHT22;5889;51.350;6.708;2023-03-01T00:24:54;0.20;99.90
11666;DHT22;5889;51.350;6.708;2023-03-01T00:27:23;0.20;99.90
11666;DHT22;5889;51.350;6.708;2023-03-01T00:29:50;0.20;99.90
11666;DHT22;5889;51.350;6.708;2023-03-01T00:32:16;0.20;99.90
11666;DHT22;5889;51.350;6.708;2023-03-01T00:34:44;0.10;99.90
11666;DHT22;5889;51.350;6.708;2023-03-01T00:37:20;0.10;99.90
11666;DHT22;5889;51.350;6.708;2023-03-01T00:39:47;0.10;99.90
11666;DHT22;5889;51.350;6.708;2023-03-01T00:42:14;0.10;99.90
11666;DHT22;5889;51.350;6.708;2023-03-01T00:44:42;0.10;99.90
11666;DHT22;5889;51.350;6.708;2023-03-01T00:47:09;0.10;99.90
11666;DHT22;5889;51.350;6.708;2023-03-01T00:49:36;0.10;99.90
11666;DHT22;5889;51.350;6.708;2023-03-01T00:52:06;0.10;99.90
11666;DHT22;5889;51.350;6.708;2023-03-01T00:54:33;0.10;99.90
11666;DHT22;5889;51.350;6.708;2023-03-01T00:57:00;0.10;99.90
11666;DHT22;5889;51.350;6.708;2023-03-01T00:59:27;0.00;99.90
11666;DHT22;5889;51.350;6.708;2023-03-01T01:01:55;0.00;99.90
11666;DHT22;5889;51.350;6.708;2023-03-01T01:04:22;0.00;99.90
11666;DHT22;5889;51.350;6.708;2023-03-01T01:06:49;0.00;99.90
11666;DHT22;5889;51.350;6.708;2023-03-01T01:09:17;0.00;99.90
11666;DHT22;5889;51.350;6.708;2023-03-01T01:11:44;0.00;99.90
11666;DHT22;5889;51.350;6.708;2023-03-01T01:14:12;0.00;99.90
11666;DHT22;5889;51.350;6.708;2023-03-01T01:16:39;0.00;99.90
11666;DHT22;5889;51.350;6.708;2023-03-01T01:19:09;-0.10;99.90
11666;DHT22;5889;51.350;6.708;2023-03-01T01:21:36;-0.10;99.90
11666;DHT22;5889;51.350;6.708;2023-03-01T01:24:03;-0.20;99.90
11666;DHT22;5889;51.350;6.708;2023-03-01T01:26:32;-0.20;99.90
11666;DHT22;5889;51.350;6.708;2023-03-01T01:29:00;-0.20;99.90
11666;DHT22;5889;51.350;6.708;2023-03-01T01:31:28;-0.20;99.90
11666;DHT22;5889;51.350;6.708;2023-03-01T01:33:56;-0.20;99.90
11666;DHT22;5889;51.350;6.708;2023-03-01T01:36:25;-0.30;99.90
11666;DHT22;5889;51.350;6.708;2023-03-01T01:38:52;-0.30;99.90
11666;DHT22;5889;51.350;6.708;2023-03-01T01:41:20;-0.30;99.90
11666;DHT22;5889;51.350;6.708;2023-03-01T01:43:49;-0.30;99.90
11666;DHT22;5889;51.350;6.708;2023-03-01T01:46:24;-0.30;99.90
11666;DHT22;5889;51.350;6.708;2023-03-01T01:48:57;-0.30;99.90
11666;DHT22;5889;51.350;6.708;2023-03-01T01:51:30;-0.40;99.90
11666;DHT22;5889;51.350;6.708;2023-03-01T01:54:08;-0.50;99.90
11666;DHT22;5889;51.350;6.708;2023-03-01T01:56:36;-0.50;99.90
11666;DHT22;5889;51.350;6.708;2023-03-01T01:59:05;-0.50;99.90
11666;DHT22;5889;51.350;6.708;2023-03-01T02:01:32;-0.50;99.90
11666;DHT22;5889;51.350;6.708;2023-03-01T02:03:59;-0.50;99.90
11666;DHT22;5889;51.350;6.708;2023-03-01T02:06:31;-0.50;99.90
11666;DHT22;5889;51.350;6.708;2023-03-01T02:09:07;-0.50;99.90
11666;DHT22;5889;51.350;6.708;2023-03-01T02:11:34;-0.60;99.90
11666;DHT22;5889;51.350;6.708;2023-03-01T02:14:03;-0.60;99.90
11666;DHT22;5889;51.350;6.708;2023-03-01T02:16:30;-0.60;99.90
11666;DHT22;5889;51.350;6.708;2023-03-01T02:18:58;-0.60;99.90
11666;DHT22;5889;51.350;6.708;2023-03-01T02:21:38;-0.60;99.90
11666;DHT22;5889;51.350;6.708;2023-03-01T02:24:17;-0.60;99.90
11666;DHT22;5889;51.350;6.708;2023-03-01T02:26:52;-0.60;99.90
11666;DHT22;5889;51.350;6.708;2023-03-01T02:29:22;-0.70;99.90
11666;DHT22;5889;51.350;6.708;2023-03-01T02:31:51;-0.70;99.90
11666;DHT22;5889;51.350;6.708;2023-03-01T02:34:20;-0.70;99.90
11666;DHT22;5889;51.350;6.708;2023-03-01T02:36:49;-0.80;99.90
11666;DHT22;5889;51.350;6.708;2023-03-01T02:39:19;-0.70;99.90
11666;DHT22;5889;51.350;6.708;2023-03-01T02:41:51;-0.80;99.90
11666;DHT22;5889;51.350;6.708;2023-03-01T02:44:19;-0.80;99.90
11666;DHT22;5889;51.350;6.708;2023-03-01T02:46:49;-0.80;99.90
11666;DHT22;5889;51.350;6.708;2023-03-01T02:49:22;-0.80;99.90
11666;DHT22;5889;51.350;6.708;2023-03-01T02:52:20;-0.90;99.90
11666;DHT22;5889;51.350;6.708;2023-03-01T02:54:51;-0.90;99.90
11666;DHT22;5889;51.350;6.708;2023-03-01T02:57:19;-0.90;99.90
11666;DHT22;5889;51.350;6.708;2023-03-01T02:59:49;-0.90;99.90
11666;DHT22;5889;51.350;6.708;2023-03-01T03:02:22;-0.90;99.90
11666;DHT22;5889;51.350;6.708;2023-03-01T03:05:02;-0.90;99.90
11666;DHT22;5889;51.350;6.708;2023-03-01T03:07:32;-1.00;99.90
11666;DHT22;5889;51.350;6.708;2023-03-01T03:10:00;-1.00;99.90
11666;DHT22;5889;51.350;6.708;2023-03-01T03:12:27;-1.00;99.90
11666;DHT22;5889;51.350;6.708;2023-03-01T03:14:54;-1.00;99.90
11666;DHT22;5889;51.350;6.708;2023-03-01T03:17:22;-1.00;99.90
11666;DHT22;5889;51.350;6.708;2023-03-01T03:19:49;-1.00;99.90
11666;DHT22;5889;51.350;6.708;2023-03-01T03:22:16;-1.00;99.90
11666;DHT22;5889;51.350;6.708;2023-03-01T03:24:43;-1.10;99.90
11666;DHT22;5889;51.350;6.708;2023-03-01T03:27:10;-1.10;99.90
11666;DHT22;5889;51.350;6.708;2023-03-01T03:29:37;-1.20;99.90
11666;DHT22;5889;51.350;6.708;2023-03-01T03:32:04;-1.20;99.90
11666;DHT22;5889;51.350;6.708;2023-03-01T03:34:32;-1.20;99.90
11666;DHT22;5889;51.350;6.708;2023-03-01T03:36:59;-1.20;99.90
11666;DHT22;5889;51.350;6.708;2023-03-01T03:39:28;-1.20;99.90
11666;DHT22;5889;51.350;6.708;2023-03-01T03:42:00;-1.20;99.90
11666;DHT22;5889;51.350;6.708;2023-03-01T03:44:27;-1.20;99.90
11666;DHT22;5889;51.350;6.708;2023-03-01T03:46:54;-1.20;99.90
11666;DHT22;5889;51.350;6.708;2023-03-01T03:49:21;-1.20;99.90
11666;DHT22;5889;51.350;6.708;2023-03-01T03:51:50;-1.20;99.90
11666;DHT22;5889;51.350;6.708;2023-03-01T03:54:17;-1.20;99.90
11666;DHT22;5889;51.350;6.708;2023-03-01T03:56:43;-1.20;99.90
11666;DHT22;5889;51.350;6.708;2023-03-01T03:59:11;-1.20;99.90
11666;DHT22;5889;51.350;6.708;2023-03-01T04:01:46;-1.20;99.90
11666;DHT22;5889;51.350;6.708;2023-03-01T04:04:13;-1.20;99.90
11666;DHT22;5889;51.350;6.708;2023-03-01T04:06:43;-1.20;99.90
11666;DHT22;5889;51.350;6.708;2023-03-01T04:09:11;-1.30;99.90
11666;DHT22;5889;51.350;6.708;2023-03-01T04:11:38;-1.30;99.90
11666;DHT22;5889;51.350;6.708;2023-03-01T04:14:05;-1.30;99.90
11666;DHT22;5889;51.350;6.708;2023-03-01T04:16:32;-1.30;99.90
11666;DHT22;5889;51.350;6.708;2023-03-01T04:18:59;-1.30;99.90
11666;DHT22;5889;51.350;6.708;2023-03-01T04:21:26;-1.30;99.90
11666;DHT22;5889;51.350;6.708;2023-03-01T04:23:53;-1.30;99.90
11666;DHT22;5889;51.350;6.708;2023-03-01T04:26:21;-1.40;99.90
11666;DHT22;5889;51.350;6.708;2023-03-01T04:28:48;-1.40;99.90
11666;DHT22;5889;51.350;6.708;2023-03-01T04:31:18;-1.40;99.90
11666;DHT22;5889;51.350;6.708;2023-03-01T04:33:48;-1.40;99.90
11666;DHT22;5889;51.350;6.708;2023-03-01T04:36:17;-1.40;99.90
11666;DHT22;5889;51.350;6.708;2023-03-01T04:38:45;-1.40;99.90
11666;DHT22;5889;51.350;6.708;2023-03-01T04:41:15;-1.50;99.90
11666;DHT22;5889;51.350;6.708;2023-03-01T04:43:44;-1.50;99.90
11666;DHT22;5889;51.350;6.708;2023-03-01T04:46:12;-1.50;99.90
11666;DHT22;5889;51.350;6.708;2023-03-01T04:48:41;-1.50;99.90
11666;DHT22;5889;51.350;6.708;2023-03-01T04:51:09;-1.50;99.90
11666;DHT22;5889;51.350;6.708;2023-03-01T04:53:39;-1.60;99.90
11666;DHT22;5889;51.350;6.708;2023-03-01T04:56:06;-1.60;99.90
11666;DHT22;5889;51.350;6.708;2023-03-01T04:58:33;-1.60;99.90
11666;DHT22;5889;51.350;6.708;2023-03-01T05:01:08;-1.60;99.90
11666;DHT22;5889;51.350;6.708;2023-03-01T05:03:41;-1.60;99.90
11666;DHT22;5889;51.350;6.708;2023-03-01T05:06:09;-1.60;99.90
11666;DHT22;5889;51.350;6.708;2023-03-01T05:08:36;-1.60;99.90
11666;DHT22;5889;51.350;6.708;2023-03-01T05:11:04;-1.60;99.90
11666;DHT22;5889;51.350;6.708;2023-03-01T05:13:31;-1.60;99.90
11666;DHT22;5889;51.350;6.708;2023-03-01T05:16:02;-1.60;99.90
11666;DHT22;5889;51.350;6.708;2023-03-01T05:18:31;-1.60;99.90
11666;DHT22;5889;51.350;6.708;2023-03-01T05:21:03;-1.60;99.90
11666;DHT22;5889;51.350;6.708;2023-03-01T05:23:31;-1.60;99.90
11666;DHT22;5889;51.350;6.708;2023-03-01T05:25:59;-1.60;99.90
11666;DHT22;5889;51.350;6.708;2023-03-01T05:28:27;-1.60;99.90
11666;DHT22;5889;51.350;6.708;2023-03-01T05:30:55;-1.70;99.90
11666;DHT22;5889;51.350;6.708;2023-03-01T05:33:24;-1.70;99.90
11666;DHT22;5889;51.350;6.708;2023-03-01T05:35:52;-1.70;99.90
11666;DHT22;5889;51.350;6.708;2023-03-01T05:38:19;-1.70;99.90
11666;DHT22;5889;51.350;6.708;2023-03-01T05:40:48;-1.70;99.90
11666;DHT22;5889;51.350;6.708;2023-03-01T05:43:17;-1.70;99.90
11666;DHT22;5889;51.350;6.708;2023-03-01T05:45:44;-1.70;99.90
11666;DHT22;5889;51.350;6.708;2023-03-01T05:48:12;-1.70;99.90
11666;DHT22;5889;51.350;6.708;2023-03-01T05:50:42;-1.70;99.90
11666;DHT22;5889;51.350;6.708;2023-03-01T05:53:11;-1.70;99.90
11666;DHT22;5889;51.350;6.708;2023-03-01T05:55:38;-1.70;99.90
11666;DHT22;5889;51.350;6.708;2023-03-01T05:58:09;-1.70;99.90
11666;DHT22;5889;51.350;6.708;2023-03-01T06:00:37;-1.70;99.90
11666;DHT22;5889;51.350;6.708;2023-03-01T06:03:03;-1.70;99.90
11666;DHT22;5889;51.350;6.708;2023-03-01T06:05:30;-1.70;99.90
11666;DHT22;5889;51.350;6.708;2023-03-01T06:08:00;-1.70;99.90
11666;DHT22;5889;51.350;6.708;2023-03-01T06:10:28;-1.70;99.90
11666;DHT22;5889;51.350;6.708;2023-03-01T06:12:55;-1.70;99.90
11666;DHT22;5889;51.350;6.708;2023-03-01T06:15:23;-1.70;99.90
11666;DHT22;5889;51.350;6.708;2023-03-01T06:17:50;-1.70;99.90
11666;DHT22;5889;51.350;6.708;2023-03-01T06:20:19;-1.70;99.90
11666;DHT22;5889;51.350;6.708;2023-03-01T06:22:47;-1.70;99.90
11666;DHT22;5889;51.350;6.708;2023-03-01T06:25:18;-1.70;99.90
11666;DHT22;5889;51.350;6.708;2023-03-01T06:27:45;-1.70;99.90
11666;DHT22;5889;51.350;6.708;2023-03-01T06:30:17;-1.70;99.90
11666;DHT22;5889;51.350;6.708;2023-03-01T06:32:44;-1.70;99.90
11666;DHT22;5889;51.350;6.708;2023-03-01T06:35:12;-1.70;99.90
11666;DHT22;5889;51.350;6.708;2023-03-01T06:37:40;-1.70;99.90
11666;DHT22;5889;51.350;6.708;2023-03-01T06:40:09;-1.70;99.90
11666;DHT22;5889;51.350;6.708;2023-03-01T06:42:41;-1.70;99.90
11666;DHT22;5889;51.350;6.708;2023-03-01T06:45:10;-1.60;99.90
11666;DHT22;5889;51.350;6.708;2023-03-01T06:47:37;-1.60;99.90
11666;DHT22;5889;51.350;6.708;2023-03-01T06:50:04;-1.60;99.90
11666;DHT22;5889;51.350;6.708;2023-03-01T06:52:32;-1.60;99.90
11666;DHT22;5889;51.350;6.708;2023-03-01T06:54:59;-1.60;99.90
11666;DHT22;5889;51.350;6.708;2023-03-01T06:57:26;-1.50;99.90
11666;DHT22;5889;51.350;6.708;2023-03-01T06:59:55;-1.50;99.90
11666;DHT22;5889;51.350;6.708;2023-03-01T07:02:22;-1.50;99.90
11666;DHT22;5889;51.350;6.708;2023-03-01T07:04:50;-1.50;99.90
11666;DHT22;5889;51.350;6.708;2023-03-01T07:07:18;-1.50;99.90
11666;DHT22;5889;51.350;6.708;2023-03-01T07:09:45;-1.40;99.90
11666;DHT22;5889;51.350;6.708;2023-03-01T07:12:12;-1.40;99.90
11666;DHT22;5889;51.350;6.708;2023-03-01T07:14:39;-1.40;99.90
11666;DHT22;5889;51.350;6.708;2023-03-01T07:17:07;-1.40;99.90
11666;DHT22;5889;51.350;6.708;2023-03-01T07:19:35;-1.30;99.90
11666;DHT22;5889;51.350;6.708;2023-03-01T07:22:03;-1.30;99.90
11666;DHT22;5889;51.350;6.708;2023-03-01T07:24:33;-1.20;99.90
11666;DHT22;5889;51.350;6.708;2023-03-01T07:27:00;-1.20;99.90
11666;DHT22;5889;51.350;6.708;2023-03-01T07:29:27;-1.10;99.90
11666;DHT22;5889;51.350;6.708;2023-03-01T07:31:55;-1.10;99.90
11666;DHT22;5889;51.350;6.708;2023-03-01T07:34:23;-1.00;99.90
11666;DHT22;5889;51.350;6.708;2023-03-01T07:36:50;-1.00;99.90
11666;DHT22;5889;51.350;6.708;2023-03-01T07:39:17;-0.90;99.90
11666;DHT22;5889;51.350;6.708;2023-03-01T07:41:44;-0.90;99.90
11666;DHT22;5889;51.350;6.708;2023-03-01T07:44:11;-0.80;99.90
11666;DHT22;5889;51.350;6.708;2023-03-01T07:46:38;-0.80;99.90
11666;DHT22;5889;51.350;6.708;2023-03-01T07:49:05;-0.80;99.90
11666;DHT22;5889;51.350;6.708;2023-03-01T07:51:37;-0.70;99.90
11666;DHT22;5889;51.350;6.708;2023-03-01T07:54:05;-0.60;99.90
11666;DHT22;5889;51.350;6.708;2023-03-01T07:56:35;-0.60;99.90
11666;DHT22;5889;51.350;6.708;2023-03-01T07:59:02;-0.60;99.90
11666;DHT22;5889;51.350;6.708;2023-03-01T08:01:29;-0.50;99.90
11666;DHT22;5889;51.350;6.708;2023-03-01T08:03:56;-0.40;99.90
11666;DHT22;5889;51.350;6.708;2023-03-01T08:06:23;-0.40;99.90
11666;DHT22;5889;51.350;6.708;2023-03-01T08:08:51;-0.30;99.90
11666;DHT22;5889;51.350;6.708;2023-03-01T08:11:21;-0.30;99.90
11666;DHT22;5889;51.350;6.708;2023-03-01T08:13:48;-0.20;99.90
11666;DHT22;5889;51.350;6.708;2023-03-01T08:16:16;-0.10;99.90
11666;DHT22;5889;51.350;6.708;2023-03-01T08:18:43;0.00;99.90
11666;DHT22;5889;51.350;6.708;2023-03-01T08:21:12;0.10;99.90
11666;DHT22;5889;51.350;6.708;2023-03-01T08:23:39;0.20;99.90
11666;DHT22;5889;51.350;6.708;2023-03-01T08:26:09;0.30;99.90
11666;DHT22;5889;51.350;6.708;2023-03-01T08:28:37;0.50;99.90
11666;DHT22;5889;51.350;6.708;2023-03-01T08:31:14;0.60;99.90
11666;DHT22;5889;51.350;6.708;2023-03-01T08:33:41;0.70;99.90
11666;DHT22;5889;51.350;6.708;2023-03-01T08:36:08;0.90;99.90
11666;DHT22;5889;51.350;6.708;2023-03-01T08:38:35;1.00;99.90
11666;DHT22;5889;51.350;6.708;2023-03-01T08:41:03;1.10;99.90
11666;DHT22;5889;51.350;6.708;2023-03-01T08:43:31;1.20;99.90
11666;DHT22;5889;51.350;6.708;2023-03-01T08:45:59;1.30;99.90
11666;DHT22;5889;51.350;6.708;2023-03-01T08:48:27;1.40;99.90
11666;DHT22;5889;51.350;6.708;2023-03-01T08:50:55;1.50;99.90
11666;DHT22;5889;51.350;6.708;2023-03-01T08:53:22;1.60;99.90
11666;DHT22;5889;51.350;6.708;2023-03-01T08:55:49;1.70;99.90
11666;DHT22;5889;51.350;6.708;2023-03-01T08:58:16;1.80;99.90
11666;DHT22;5889;51.350;6.708;2023-03-01T09:00:44;1.90;99.90
11666;DHT22;5889;51.350;6.708;2023-03-01T09:03:11;2.00;99.90
11666;DHT22;5889;51.350;6.708;2023-03-01T09:05:38;2.10;99.90
11666;DHT22;5889;51.350;6.708;2023-03-01T09:08:05;2.20;99.90
11666;DHT22;5889;51.350;6.708;2023-03-01T09:10:37;2.20;99.90
11666;DHT22;5889;51.350;6.708;2023-03-01T09:13:04;2.40;99.90
11666;DHT22;5889;51.350;6.708;2023-03-01T09:15:31;2.50;99.90
11666;DHT22;5889;51.350;6.708;2023-03-01T09:18:00;2.70;99.90
11666;DHT22;5889;51.350;6.708;2023-03-01T09:20:27;2.80;99.90
11666;DHT22;5889;51.350;6.708;2023-03-01T09:22:54;2.90;99.90
11666;DHT22;5889;51.350;6.708;2023-03-01T09:25:21;3.10;99.90
11666;DHT22;5889;51.350;6.708;2023-03-01T09:27:50;3.20;99.90
11666;DHT22;5889;51.350;6.708;2023-03-01T09:30:18;3.30;99.90
11666;DHT22;5889;51.350;6.708;2023-03-01T09:32:45;3.40;99.80
11666;DHT22;5889;51.350;6.708;2023-03-01T09:35:14;3.50;99.90
11666;DHT22;5889;51.350;6.708;2023-03-01T09:37:41;3.70;99.50
11666;DHT22;5889;51.350;6.708;2023-03-01T09:40:15;3.70;98.80
11666;DHT22;5889;51.350;6.708;2023-03-01T09:43:01;3.80;99.30
11666;DHT22;5889;51.350;6.708;2023-03-01T09:45:34;3.90;99.00
11666;DHT22;5889;51.350;6.708;2023-03-01T09:48:02;4.00;99.20
11666;DHT22;5889;51.350;6.708;2023-03-01T09:50:35;4.20;98.30
11666;DHT22;5889;51.350;6.708;2023-03-01T09:53:07;4.30;98.50
11666;DHT22;5889;51.350;6.708;2023-03-01T09:55:39;4.30;98.10
11666;DHT22;5889;51.350;6.708;2023-03-01T09:58:31;4.40;97.90
11666;DHT22;5889;51.350;6.708;2023-03-01T10:01:10;4.40;97.60
11666;DHT22;5889;51.350;6.708;2023-03-01T10:03:44;4.40;97.50
11666;DHT22;5889;51.350;6.708;2023-03-01T10:06:20;4.50;97.10
11666;DHT22;5889;51.350;6.708;2023-03-01T10:08:54;4.40;96.60
11666;DHT22;5889;51.350;6.708;2023-03-01T10:11:26;4.30;96.50
11666;DHT22;5889;51.350;6.708;2023-03-01T10:13:59;4.30;96.50
11666;DHT22;5889;51.350;6.708;2023-03-01T10:16:41;4.20;96.30
11666;DHT22;5889;51.350;6.708;2023-03-01T10:19:14;4.20;96.90
11666;DHT22;5889;51.350;6.708;2023-03-01T10:21:45;4.20;96.20
11666;DHT22;5889;51.350;6.708;2023-03-01T10:24:15;4.20;96.60
11666;DHT22;5889;51.350;6.708;2023-03-01T10:26:49;4.30;96.00
11666;DHT22;5889;51.350;6.708;2023-03-01T10:29:25;4.30;96.00
11666;DHT22;5889;51.350;6.708;2023-03-01T10:31:54;4.30;95.90
11666;DHT22;5889;51.350;6.708;2023-03-01T10:34:26;4.30;96.20
11666;DHT22;5889;51.350;6.708;2023-03-01T10:36:57;4.50;95.80
11666;DHT22;5889;51.350;6.708;2023-03-01T10:39:26;4.50;96.10
11666;DHT22;5889;51.350;6.708;2023-03-01T10:42:01;4.60;95.90
11666;DHT22;5889;51.350;6.708;2023-03-01T10:44:37;4.80;95.90
11666;DHT22;5889;51.350;6.708;2023-03-01T10:47:04;4.90;95.60
11666;DHT22;5889;51.350;6.708;2023-03-01T10:49:31;5.00;95.50
11666;DHT22;5889;51.350;6.708;2023-03-01T10:52:17;5.00;95.30
11666;DHT22;5889;51.350;6.708;2023-03-01T10:54:52;5.10;95.20
11666;DHT22;5889;51.350;6.708;2023-03-01T10:57:32;5.10;94.90
11666;DHT22;5889;51.350;6.708;2023-03-01T11:00:19;5.10;94.90
11666;DHT22;5889;51.350;6.708;2023-03-01T11:02:51;5.00;94.50
11666;DHT22;5889;51.350;6.708;2023-03-01T11:05:21;5.00;94.70
11666;DHT22;5889;51.350;6.708;2023-03-01T11:07:53;5.00;94.90
11666;DHT22;5889;51.350;6.708;2023-03-01T11:10:23;5.00;95.60
11666;DHT22;5889;51.350;6.708;2023-03-01T11:12:51;5.00;94.60
11666;DHT22;5889;51.350;6.708;2023-03-01T11:15:25;5.00;94.00
11666;DHT22;5889;51.350;6.708;2023-03-01T11:17:52;5.00;94.00
11666;DHT22;5889;51.350;6.708;2023-03-01T11:20:27;5.00;93.30
11666;DHT22;5889;51.350;6.708;2023-03-01T11:23:00;5.00;94.10
11666;DHT22;5889;51.350;6.708;2023-03-01T11:25:32;5.10;94.00
11666;DHT22;5889;51.350;6.708;2023-03-01T11:28:03;5.20;93.70
11666;DHT22;5889;51.350;6.708;2023-03-01T11:30:34;5.20;93.80
11666;DHT22;5889;51.350;6.708;2023-03-01T11:33:17;5.30;92.60
11666;DHT22;5889;51.350;6.708;2023-03-01T11:35:50;5.30;92.60
11666;DHT22;5889;51.350;6.708;2023-03-01T11:38:25;5.20;93.10
11666;DHT22;5889;51.350;6.708;2023-03-01T11:40:56;5.20;93.10
11666;DHT22;5889;51.350;6.708;2023-03-01T11:43:33;5.20;93.50
11666;DHT22;5889;51.350;6.708;2023-03-01T11:46:47;5.20;92.40
11666;DHT22;5889;51.350;6.708;2023-03-01T11:49:33;5.20;91.90
11666;DHT22;5889;51.350;6.708;2023-03-01T11:52:07;5.30;92.10
11666;DHT22;5889;51.350;6.708;2023-03-01T11:54:46;5.40;92.80
11666;DHT22;5889;51.350;6.708;2023-03-01T11:57:24;5.50;91.30
11666;DHT22;5889;51.350;6.708;2023-03-01T12:00:17;5.40;91.20
11666;DHT22;5889;51.350;6.708;2023-03-01T12:06:00;5.40;92.30
11666;DHT22;5889;51.350;6.708;2023-03-01T12:08:35;5.50;92.50
11666;DHT22;5889;51.350;6.708;2023-03-01T12:11:14;5.50;92.70
11666;DHT22;5889;51.350;6.708;2023-03-01T12:13:59;5.70;91.90
11666;DHT22;5889;51.350;6.708;2023-03-01T12:16:40;5.80;92.10
11666;DHT22;5889;51.350;6.708;2023-03-01T12:19:33;5.90;91.30
11666;DHT22;5889;51.350;6.708;2023-03-01T12:22:13;5.90;91.60
11666;DHT22;5889;51.350;6.708;2023-03-01T12:24:54;5.90;92.30
11666;DHT22;5889;51.350;6.708;2023-03-01T12:27:41;6.00;92.10
11666;DHT22;5889;51.350;6.708;2023-03-01T12:30:25;6.00;92.10
11666;DHT22;5889;51.350;6.708;2023-03-01T12:33:05;6.00;91.40
11666;DHT22;5889;51.350;6.708;2023-03-01T12:35:50;6.00;92.60
11666;DHT22;5889;51.350;6.708;2023-03-01T12:38:32;6.00;91.30
11666;DHT22;5889;51.350;6.708;2023-03-01T12:41:16;6.10;91.00
11666;DHT22;5889;51.350;6.708;2023-03-01T12:43:58;6.20;91.90
11666;DHT22;5889;51.350;6.708;2023-03-01T12:46:41;6.20;90.70
11666;DHT22;5889;51.350;6.708;2023-03-01T12:49:15;6.30;91.00
11666;DHT22;5889;51.350;6.708;2023-03-01T12:51:49;6.30;91.00
11666;DHT22;5889;51.350;6.708;2023-03-01T12:54:22;6.30;90.80
11666;DHT22;5889;51.350;6.708;2023-03-01T12:56:53;6.30;90.10
11666;DHT22;5889;51.350;6.708;2023-03-01T12:59:27;6.20;90.40
11666;DHT22;5889;51.350;6.708;2023-03-01T13:02:02;6.20;88.80
11666;DHT22;5889;51.350;6.708;2023-03-01T13:04:40;6.20;89.70
11666;DHT22;5889;51.350;6.708;2023-03-01T13:07:21;6.30;89.00
11666;DHT22;5889;51.350;6.708;2023-03-01T13:09:59;6.30;90.20
11666;DHT22;5889;51.350;6.708;2023-03-01T13:13:01;6.30;90.90
11666;DHT22;5889;51.350;6.708;2023-03-01T13:15:34;6.40;90.90
11666;DHT22;5889;51.350;6.708;2023-03-01T13:18:03;6.50;91.40
11666;DHT22;5889;51.350;6.708;2023-03-01T13:20:34;6.50;90.90
11666;DHT22;5889;51.350;6.708;2023-03-01T13:23:08;6.60;91.20
11666;DHT22;5889;51.350;6.708;2023-03-01T13:26:10;6.70;90.60
11666;DHT22;5889;51.350;6.708;2023-03-01T13:28:48;6.70;90.90
11666;DHT22;5889;51.350;6.708;2023-03-01T13:34:47;6.70;91.00
11666;DHT22;5889;51.350;6.708;2023-03-01T13:37:24;6.80;89.50
11666;DHT22;5889;51.350;6.708;2023-03-01T13:39:55;6.80;90.50
11666;DHT22;5889;51.350;6.708;2023-03-01T13:42:40;6.80;90.30
11666;DHT22;5889;51.350;6.708;2023-03-01T13:45:34;6.80;90.30
11666;DHT22;5889;51.350;6.708;2023-03-01T13:48:08;6.80;87.50
11666;DHT22;5889;51.350;6.708;2023-03-01T13:50:43;6.80;88.70
11666;DHT22;5889;51.350;6.708;2023-03-01T13:53:16;6.90;87.80
11666;DHT22;5889;51.350;6.708;2023-03-01T13:55:45;6.90;87.70
11666;DHT22;5889;51.350;6.708;2023-03-01T13:58:21;6.80;88.90
11666;DHT22;5889;51.350;6.708;2023-03-01T14:00:55;6.80;90.10
11666;DHT22;5889;51.350;6.708;2023-03-01T14:03:22;6.90;90.10
11666;DHT22;5889;51.350;6.708;2023-03-01T14:06:14;6.90;88.10
11666;DHT22;5889;51.350;6.708;2023-03-01T14:08:44;6.80;87.60
11666;DHT22;5889;51.350;6.708;2023-03-01T14:14:37;6.90;89.40
11666;DHT22;5889;51.350;6.708;2023-03-01T14:17:28;6.80;89.00
11666;DHT22;5889;51.350;6.708;2023-03-01T14:19:57;6.80;88.00
11666;DHT22;5889;51.350;6.708;2023-03-01T14:22:27;6.90;88.40
11666;DHT22;5889;51.350;6.708;2023-03-01T14:24:56;6.80;89.10
11666;DHT22;5889;51.350;6.708;2023-03-01T14:27:27;6.80;90.50
11666;DHT22;5889;51.350;6.708;2023-03-01T14:29:58;6.80;89.40
11666;DHT22;5889;51.350;6.708;2023-03-01T14:32:28;6.90;90.80
11666;DHT22;5889;51.350;6.708;2023-03-01T14:34:56;6.90;90.30
11666;DHT22;5889;51.350;6.708;2023-03-01T14:37:26;6.90;89.70
11666;DHT22;5889;51.350;6.708;2023-03-01T14:39:54;7.00;89.00
11666;DHT22;5889;51.350;6.708;2023-03-01T14:42:23;7.10;88.90
11666;DHT22;5889;51.350;6.708;2023-03-01T14:44:55;7.10;90.10
11666;DHT22;5889;51.350;6.708;2023-03-01T14:47:27;7.10;89.50
11666;DHT22;5889;51.350;6.708;2023-03-01T14:49:58;7.10;87.80
11666;DHT22;5889;51.350;6.708;2023-03-01T14:52:32;7.10;86.90
11666;DHT22;5889;51.350;6.708;2023-03-01T14:55:04;7.10;87.50
11666;DHT22;5889;51.350;6.708;2023-03-01T14:57:32;7.10;88.70
11666;DHT22;5889;51.350;6.708;2023-03-01T15:00:05;7.10;89.50
11666;DHT22;5889;51.350;6.708;2023-03-01T15:02:33;7.00;90.00
11666;DHT22;5889;51.350;6.708;2023-03-01T15:05:03;7.00;90.40
11666;DHT22;5889;51.350;6.708;2023-03-01T15:07:33;7.00;90.00
11666;DHT22;5889;51.350;6.708;2023-03-01T15:10:04;7.00;89.70
11666;DHT22;5889;51.350;6.708;2023-03-01T15:12:37;7.00;88.50
11666;DHT22;5889;51.350;6.708;2023-03-01T15:15:33;7.00;88.00
11666;DHT22;5889;51.350;6.708;2023-03-01T15:18:03;7.00;90.40
11666;DHT22;5889;51.350;6.708;2023-03-01T15:20:33;7.00;89.40
11666;DHT22;5889;51.350;6.708;2023-03-01T15:23:02;7.00;89.10
11666;DHT22;5889;51.350;6.708;2023-03-01T15:25:31;7.00;90.80
11666;DHT22;5889;51.350;6.708;2023-03-01T15:28:00;7.10;90.40
11666;DHT22;5889;51.350;6.708;2023-03-01T15:30:31;7.10;89.30
11666;DHT22;5889;51.350;6.708;2023-03-01T15:33:25;7.10;89.30
11666;DHT22;5889;51.350;6.708;2023-03-01T15:35:54;7.00;88.20
11666;DHT22;5889;51.350;6.708;2023-03-01T15:38:27;6.90;88.90
11666;DHT22;5889;51.350;6.708;2023-03-01T15:40:55;6.90;90.10
11666;DHT22;5889;51.350;6.708;2023-03-01T15:43:41;6.90;90.10
11666;DHT22;5889;51.350;6.708;2023-03-01T15:46:20;6.90;89.90
11666;DHT22;5889;51.350;6.708;2023-03-01T15:48:52;6.90;89.40
11666;DHT22;5889;51.350;6.708;2023-03-01T15:51:26;6.90;90.00
11666;DHT22;5889;51.350;6.708;2023-03-01T15:53:55;6.90;89.00
11666;DHT22;5889;51.350;6.708;2023-03-01T15:56:23;6.80;88.70
11666;DHT22;5889;51.350;6.708;2023-03-01T15:58:51;6.80;89.60
11666;DHT22;5889;51.350;6.708;2023-03-01T16:01:18;6.80;90.60
11666;DHT22;5889;51.350;6.708;2023-03-01T16:03:46;6.80;90.10
11666;DHT22;5889;51.350;6.708;2023-03-01T16:06:14;6.70;89.60
11666;DHT22;5889;51.350;6.708;2023-03-01T16:08:42;6.70;90.30
11666;DHT22;5889;51.350;6.708;2023-03-01T16:11:14;6.70;90.00
11666;DHT22;5889;51.350;6.708;2023-03-01T16:13:42;6.60;90.10
11666;DHT22;5889;51.350;6.708;2023-03-01T16:16:10;6.60;90.30
11666;DHT22;5889;51.350;6.708;2023-03-01T16:18:41;6.60;90.10
11666;DHT22;5889;51.350;6.708;2023-03-01T16:21:18;6.60;90.30
11666;DHT22;5889;51.350;6.708;2023-03-01T16:23:46;6.50;90.40
11666;DHT22;5889;51.350;6.708;2023-03-01T16:26:13;6.50;90.60
11666;DHT22;5889;51.350;6.708;2023-03-01T16:28:41;6.50;90.70